Rossville, KS (66533)

9:21 PM CST on February 12, 2016 (GMT -0600)
62nd St | | Change Station
CLOSE
Current Station
Personal Weather Station
Location: Rossville, KS
Elevation: 1033 ft
Nearby Weather Stations

Elev 1033 ft 39.16 °N, 95.94 °W | Updated 41 seconds ago

Partly Cloudy
Partly Cloudy
23.8 °F
Feels Like 14 °F
N
9.9
Wind Variable Wind from North
Gusts 15.6 mph

Today
High -- | Low -- °F
--% Chance of Precip.
Yesterday
High -- | Low -- °F
Precip. -- in
Pressure 30.62 in
Visibility 10.0 miles
Clouds Overcast 12000 ft
Windchill 14 °F
Dew Point 9 °F
Humidity 53%
Rainfall 0.00 in
Snow Depth Not available.
7:19 AM 5:57 PM
Waxing Crescent, 26% visible
METAR KTOP 130253Z AUTO 03010KT 10SM OVC120 M04/M14 A3059 RMK AO2 SLP367 T10391144 51021 TSNO
Pressure 30.62 in
Visibility 10.0 miles
Clouds Overcast 12000 ft
Windchill 14 °F
Dew Point 9 °F
Humidity 53%
Rainfall 0.00 in
Snow Depth Not available.
7:19 AM 5:57 PM
Waxing Crescent, 26% visible
METAR KTOP 130253Z AUTO 03010KT 10SM OVC120 M04/M14 A3059 RMK AO2 SLP367 T10391144 51021 TSNO

10-Day Weather Forecast

Almanac

Astronomy

Feb. 12, 2016 Rise Set
Actual Time
Civil Twilight
Nautical Twilight
Astronomical Twilight
Moon
Length of Visible Light
Length of Day
Tomorrow will be .
, % of the Moon is Illuminated

Today's Extremes

State Highs State Lows

Community

WunderPhotos

Upload Photos

1,892,491 photos uploaded!

WunderBlog® & News

Nearby

Air Quality

  Air Quality AQ Index Pollutant
Not available.

Snow Depth

Station Depth Elevation

Earthquake Activity

City Distance Mag. Time & Date
Minimum magnitude displayed is 2.5.

Coastal Water Temperatures

Place Temperature

Stations

Nearby Weather Stations

Station Location Temp. Windchill Dew Point Humidity Wind Precip. Elev Updated Type
                   

Watches & Warnings

There are currently no watches in effect.